sensor_id;sensor_type;location;lat;lon;timestamp;pressure;altitude;pressure_sealevel;temperature;humidity
29045;BME280;16133;49.486;12.176;2023-06-24T00:00:29;97865.53;;;13.23;100.00
29045;BME280;16133;49.486;12.176;2023-06-24T00:02:55;97865.53;;;13.23;100.00
29045;BME280;16133;49.486;12.176;2023-06-24T00:05:21;97861.41;;;13.20;100.00
29045;BME280;16133;49.486;12.176;2023-06-24T00:07:46;97870.41;;;13.19;100.00
29045;BME280;16133;49.486;12.176;2023-06-24T00:10:13;97867.72;;;13.19;100.00
29045;BME280;16133;49.486;12.176;2023-06-24T00:12:39;97863.22;;;13.20;100.00
29045;BME280;16133;49.486;12.176;2023-06-24T00:15:07;97848.38;;;13.11;100.00
29045;BME280;16133;49.486;12.176;2023-06-24T00:17:33;97846.97;;;13.15;100.00
29045;BME280;16133;49.486;12.176;2023-06-24T00:19:58;97857.06;;;13.19;100.00
29045;BME280;16133;49.486;12.176;2023-06-24T00:22:23;97840.09;;;13.20;100.00
29045;BME280;16133;49.486;12.176;2023-06-24T00:24:49;97845.25;;;13.22;100.00
29045;BME280;16133;49.486;12.176;2023-06-24T00:27:15;97839.25;;;13.20;100.00
29045;BME280;16133;49.486;12.176;2023-06-24T00:29:40;97847.91;;;13.22;100.00
29045;BME280;16133;49.486;12.176;2023-06-24T00:32:06;97849.91;;;13.20;100.00
29045;BME280;16133;49.486;12.176;2023-06-24T00:34:32;97841.09;;;13.19;100.00
29045;BME280;16133;49.486;12.176;2023-06-24T00:36:57;97845.41;;;13.20;100.00
29045;BME280;16133;49.486;12.176;2023-06-24T00:39:23;97839.91;;;13.22;100.00
29045;BME280;16133;49.486;12.176;2023-06-24T00:41:48;97844.56;;;13.20;100.00
29045;BME280;16133;49.486;12.176;2023-06-24T00:44:14;97842.28;;;13.17;100.00
29045;BME280;16133;49.486;12.176;2023-06-24T00:46:40;97845.78;;;13.17;100.00
29045;BME280;16133;49.486;12.176;2023-06-24T00:49:08;97831.63;;;13.17;100.00
29045;BME280;16133;49.486;12.176;2023-06-24T00:51:34;97839.78;;;13.15;100.00
29045;BME280;16133;49.486;12.176;2023-06-24T00:54:01;97839.78;;;13.15;100.00
29045;BME280;16133;49.486;12.176;2023-06-24T00:56:32;97837.13;;;13.15;100.00
29045;BME280;16133;49.486;12.176;2023-06-24T00:59:00;97829.13;;;13.15;100.00
29045;BME280;16133;49.486;12.176;2023-06-24T01:01:33;97824.66;;;13.16;100.00
29045;BME280;16133;49.486;12.176;2023-06-24T01:03:59;97823.81;;;13.15;100.00
29045;BME280;16133;49.486;12.176;2023-06-24T01:06:26;97824.84;;;13.14;100.00
29045;BME280;16133;49.486;12.176;2023-06-24T01:08:58;97819.31;;;13.16;100.00
29045;BME280;16133;49.486;12.176;2023-06-24T01:11:27;97822.34;;;13.13;100.00
29045;BME280;16133;49.486;12.176;2023-06-24T01:13:53;97831.47;;;13.18;100.00
29045;BME280;16133;49.486;12.176;2023-06-24T01:18:55;97815.00;;;13.15;100.00
29045;BME280;16133;49.486;12.176;2023-06-24T01:27:24;97800.09;;;13.20;100.00
29045;BME280;16133;49.486;12.176;2023-06-24T01:32:43;97805.63;;;13.19;100.00
29045;BME280;16133;49.486;12.176;2023-06-24T01:35:18;97800.28;;;13.19;100.00
29045;BME280;16133;49.486;12.176;2023-06-24T01:37:49;97795.78;;;13.19;100.00
29045;BME280;16133;49.486;12.176;2023-06-24T01:42:45;97796.44;;;13.21;100.00
29045;BME280;16133;49.486;12.176;2023-06-24T01:45:19;97790.91;;;13.23;100.00
29045;BME280;16133;49.486;12.176;2023-06-24T01:47:49;97788.06;;;13.24;100.00
29045;BME280;16133;49.486;12.176;2023-06-24T01:50:20;97785.13;;;13.19;100.00
29045;BME280;16133;49.486;12.176;2023-06-24T01:52:49;97789.91;;;13.24;100.00
29045;BME280;16133;49.486;12.176;2023-06-24T01:55:19;97787.63;;;13.21;100.00
29045;BME280;16133;49.486;12.176;2023-06-24T01:57:48;97780.25;;;13.23;100.00
29045;BME280;16133;49.486;12.176;2023-06-24T02:00:15;97772.91;;;13.25;100.00
29045;BME280;16133;49.486;12.176;2023-06-24T02:02:43;97774.56;;;13.26;100.00
29045;BME280;16133;49.486;12.176;2023-06-24T02:05:10;97781.53;;;13.27;100.00
29045;BME280;16133;49.486;12.176;2023-06-24T02:07:37;97780.53;;;13.28;100.00
29045;BME280;16133;49.486;12.176;2023-06-24T02:10:21;97777.84;;;13.28;100.00
29045;BME280;16133;49.486;12.176;2023-06-24T02:12:48;97785.84;;;13.28;100.00
29045;BME280;16133;49.486;12.176;2023-06-24T02:15:15;97785.03;;;13.27;100.00
29045;BME280;16133;49.486;12.176;2023-06-24T02:17:42;97787.69;;;13.27;100.00
29045;BME280;16133;49.486;12.176;2023-06-24T02:20:08;97789.72;;;13.25;100.00
29045;BME280;16133;49.486;12.176;2023-06-24T02:22:37;97791.00;;;13.29;100.00
29045;BME280;16133;49.486;12.176;2023-06-24T02:25:05;97795.50;;;13.29;100.00
29045;BME280;16133;49.486;12.176;2023-06-24T02:27:32;97791.84;;;13.30;100.00
29045;BME280;16133;49.486;12.176;2023-06-24T02:29:58;97789.16;;;13.30;100.00
29045;BME280;16133;49.486;12.176;2023-06-24T02:32:24;97784.41;;;13.25;100.00
29045;BME280;16133;49.486;12.176;2023-06-24T02:34:50;97784.63;;;13.30;100.00
29045;BME280;16133;49.486;12.176;2023-06-24T02:37:15;97783.63;;;13.31;100.00
29045;BME280;16133;49.486;12.176;2023-06-24T02:39:41;97779.31;;;13.30;100.00
29045;BME280;16133;49.486;12.176;2023-06-24T02:42:10;97784.84;;;13.29;100.00
29045;BME280;16133;49.486;12.176;2023-06-24T02:44:37;97787.50;;;13.29;100.00
29045;BME280;16133;49.486;12.176;2023-06-24T02:47:04;97786.84;;;13.27;100.00
29045;BME280;16133;49.486;12.176;2023-06-24T02:49:30;97790.34;;;13.27;100.00
29045;BME280;16133;49.486;12.176;2023-06-24T02:51:56;97797.50;;;13.27;100.00
29045;BME280;16133;49.486;12.176;2023-06-24T02:54:21;97795.41;;;13.22;100.00
29045;BME280;16133;49.486;12.176;2023-06-24T02:56:47;97801.31;;;13.18;100.00
29045;BME280;16133;49.486;12.176;2023-06-24T02:59:13;97809.38;;;13.24;100.00
29045;BME280;16133;49.486;12.176;2023-06-24T03:01:39;97818.50;;;13.30;100.00
29045;BME280;16133;49.486;12.176;2023-06-24T03:04:05;97825.44;;;13.31;100.00
29045;BME280;16133;49.486;12.176;2023-06-24T03:06:32;97827.28;;;13.30;100.00
29045;BME280;16133;49.486;12.176;2023-06-24T03:08:58;97824.81;;;13.29;100.00
29045;BME280;16133;49.486;12.176;2023-06-24T03:11:24;97825.81;;;13.28;100.00
29045;BME280;16133;49.486;12.176;2023-06-24T03:13:51;97828.09;;;13.31;100.00
29045;BME280;16133;49.486;12.176;2023-06-24T03:16:16;97824.44;;;13.32;100.00
29045;BME280;16133;49.486;12.176;2023-06-24T03:18:42;97831.44;;;13.33;100.00
29045;BME280;16133;49.486;12.176;2023-06-24T03:21:10;97828.56;;;13.34;100.00
29045;BME280;16133;49.486;12.176;2023-06-24T03:23:36;97830.06;;;13.37;100.00
29045;BME280;16133;49.486;12.176;2023-06-24T03:26:01;97834.00;;;13.41;100.00
29045;BME280;16133;49.486;12.176;2023-06-24T03:28:31;97830.13;;;13.44;100.00
29045;BME280;16133;49.486;12.176;2023-06-24T03:30:58;97832.59;;;13.45;100.00
29045;BME280;16133;49.486;12.176;2023-06-24T03:33:24;97825.22;;;13.47;100.00
29045;BME280;16133;49.486;12.176;2023-06-24T03:35:51;97833.31;;;13.54;100.00
29045;BME280;16133;49.486;12.176;2023-06-24T03:38:17;97851.41;;;13.58;100.00
29045;BME280;16133;49.486;12.176;2023-06-24T03:40:42;97844.69;;;13.62;100.00
29045;BME280;16133;49.486;12.176;2023-06-24T03:43:09;97846.59;;;13.68;100.00
29045;BME280;16133;49.486;12.176;2023-06-24T03:45:34;97848.53;;;13.74;100.00
29045;BME280;16133;49.486;12.176;2023-06-24T03:47:59;97853.84;;;13.74;100.00
29045;BME280;16133;49.486;12.176;2023-06-24T03:50:25;97858.81;;;13.77;100.00
29045;BME280;16133;49.486;12.176;2023-06-24T03:52:50;97864.13;;;13.77;100.00
29045;BME280;16133;49.486;12.176;2023-06-24T03:55:16;97865.97;;;13.77;100.00
29045;BME280;16133;49.486;12.176;2023-06-24T03:57:41;97877.47;;;13.77;100.00
29045;BME280;16133;49.486;12.176;2023-06-24T04:00:07;97873.81;;;13.78;100.00
29045;BME280;16133;49.486;12.176;2023-06-24T04:02:38;97876.25;;;13.80;100.00
29045;BME280;16133;49.486;12.176;2023-06-24T04:05:04;97874.44;;;13.80;100.00
29045;BME280;16133;49.486;12.176;2023-06-24T04:07:31;97887.19;;;13.85;100.00
29045;BME280;16133;49.486;12.176;2023-06-24T04:09:57;97874.25;;;13.82;100.00
29045;BME280;16133;49.486;12.176;2023-06-24T04:12:22;97886.25;;;13.93;100.00
29045;BME280;16133;49.486;12.176;2023-06-24T04:14:48;97885.69;;;13.97;100.00
29045;BME280;16133;49.486;12.176;2023-06-24T04:17:13;97886.16;;;14.01;100.00
29045;BME280;16133;49.486;12.176;2023-06-24T04:19:39;97884.13;;;14.03;100.00
29045;BME280;16133;49.486;12.176;2023-06-24T04:22:04;97882.09;;;14.05;100.00
29045;BME280;16133;49.486;12.176;2023-06-24T04:24:30;97884.38;;;14.08;100.00
29045;BME280;16133;49.486;12.176;2023-06-24T04:26:56;97890.97;;;14.12;100.00
29045;BME280;16133;49.486;12.176;2023-06-24T04:29:21;97895.94;;;14.15;100.00
29045;BME280;16133;49.486;12.176;2023-06-24T04:31:47;97897.84;;;14.21;100.00
29045;BME280;16133;49.486;12.176;2023-06-24T04:34:12;97904.47;;;14.25;100.00
29045;BME280;16133;49.486;12.176;2023-06-24T04:36:37;97904.69;;;14.30;100.00
29045;BME280;16133;49.486;12.176;2023-06-24T04:39:04;97913.97;;;14.34;100.00
29045;BME280;16133;49.486;12.176;2023-06-24T04:41:29;97918.41;;;14.42;100.00
29045;BME280;16133;49.486;12.176;2023-06-24T04:43:56;97918.72;;;14.53;100.00
29045;BME280;16133;49.486;12.176;2023-06-24T04:46:21;97927.47;;;14.68;100.00
29045;BME280;16133;49.486;12.176;2023-06-24T04:48:47;97930.88;;;14.83;100.00
29045;BME280;16133;49.486;12.176;2023-06-24T04:51:12;97933.84;;;14.95;100.00
29045;BME280;16133;49.486;12.176;2023-06-24T04:53:37;97932.13;;;15.09;100.00
29045;BME280;16133;49.486;12.176;2023-06-24T04:56:03;97939.19;;;15.23;100.00
29045;BME280;16133;49.486;12.176;2023-06-24T04:58:28;97936.63;;;15.36;100.00
29045;BME280;16133;49.486;12.176;2023-06-24T05:00:54;97949.06;;;15.50;100.00
29045;BME280;16133;49.486;12.176;2023-06-24T05:03:20;97969.06;;;15.61;100.00
29045;BME280;16133;49.486;12.176;2023-06-24T05:05:46;97990.97;;;15.71;100.00
29045;BME280;16133;49.486;12.176;2023-06-24T05:08:11;98014.91;;;15.86;100.00
29045;BME280;16133;49.486;12.176;2023-06-24T05:10:36;98026.72;;;15.98;100.00
29045;BME280;16133;49.486;12.176;2023-06-24T05:13:02;98060.69;;;16.04;100.00
29045;BME280;16133;49.486;12.176;2023-06-24T05:15:27;98084.00;;;16.10;100.00
29045;BME280;16133;49.486;12.176;2023-06-24T05:17:52;98112.28;;;16.19;100.00
29045;BME280;16133;49.486;12.176;2023-06-24T05:20:18;98135.19;;;16.28;100.00
29045;BME280;16133;49.486;12.176;2023-06-24T05:22:43;98139.41;;;16.50;100.00
29045;BME280;16133;49.486;12.176;2023-06-24T05:25:09;98153.78;;;16.70;100.00
29045;BME280;16133;49.486;12.176;2023-06-24T05:27:37;98173.94;;;17.20;100.00
29045;BME280;16133;49.486;12.176;2023-06-24T05:30:03;98203.75;;;17.72;100.00
29045;BME280;16133;49.486;12.176;2023-06-24T05:32:28;98245.50;;;18.07;100.00
29045;BME280;16133;49.486;12.176;2023-06-24T05:34:53;98256.59;;;18.89;100.00
29045;BME280;16133;49.486;12.176;2023-06-24T05:37:19;98280.03;;;19.27;100.00
29045;BME280;16133;49.486;12.176;2023-06-24T05:39:44;98287.00;;;19.47;100.00
29045;BME280;16133;49.486;12.176;2023-06-24T05:42:09;98296.84;;;20.29;100.00
29045;BME280;16133;49.486;12.176;2023-06-24T05:44:35;98295.34;;;20.83;94.45
29045;BME280;16133;49.486;12.176;2023-06-24T05:47:00;98302.28;;;21.33;93.23
29045;BME280;16133;49.486;12.176;2023-06-24T05:49:26;98315.75;;;22.00;83.28
29045;BME280;16133;49.486;12.176;2023-06-24T05:51:51;98316.94;;;21.85;80.37
29045;BME280;16133;49.486;12.176;2023-06-24T05:54:16;98324.03;;;21.38;81.11
29045;BME280;16133;49.486;12.176;2023-06-24T05:56:42;98317.19;;;20.75;85.51
29045;BME280;16133;49.486;12.176;2023-06-24T05:59:07;98323.53;;;21.05;84.15
29045;BME280;16133;49.486;12.176;2023-06-24T06:01:33;98314.88;;;21.21;83.82
29045;BME280;16133;49.486;12.176;2023-06-24T06:03:58;98316.97;;;21.37;80.85
29045;BME280;16133;49.486;12.176;2023-06-24T06:06:23;98304.63;;;21.60;75.57
29045;BME280;16133;49.486;12.176;2023-06-24T06:08:49;98314.72;;;21.34;77.96
29045;BME280;16133;49.486;12.176;2023-06-24T06:11:14;98310.97;;;21.17;77.91
29045;BME280;16133;49.486;12.176;2023-06-24T06:13:39;98309.16;;;21.48;79.70
29045;BME280;16133;49.486;12.176;2023-06-24T06:16:05;98308.94;;;21.79;75.69
29045;BME280;16133;49.486;12.176;2023-06-24T06:18:30;98308.91;;;21.67;76.83
29045;BME280;16133;49.486;12.176;2023-06-24T06:20:56;98307.22;;;21.84;76.25
29045;BME280;16133;49.486;12.176;2023-06-24T06:23:21;98305.56;;;22.13;74.19
29045;BME280;16133;49.486;12.176;2023-06-24T06:25:47;98309.41;;;22.06;73.65
29045;BME280;16133;49.486;12.176;2023-06-24T06:28:12;98312.91;;;21.95;73.02
29045;BME280;16133;49.486;12.176;2023-06-24T06:30:38;98304.84;;;21.76;73.79
29045;BME280;16133;49.486;12.176;2023-06-24T06:33:03;98293.47;;;21.56;74.47
29045;BME280;16133;49.486;12.176;2023-06-24T06:35:28;98296.41;;;21.36;76.44
29045;BME280;16133;49.486;12.176;2023-06-24T06:37:54;98293.13;;;21.16;76.23
29045;BME280;16133;49.486;12.176;2023-06-24T06:40:20;98295.13;;;20.84;78.19
29045;BME280;16133;49.486;12.176;2023-06-24T06:42:45;98292.22;;;20.36;79.49
29045;BME280;16133;49.486;12.176;2023-06-24T06:45:11;98280.94;;;19.90;83.46
29045;BME280;16133;49.486;12.176;2023-06-24T06:47:36;98297.09;;;19.90;82.96
29045;BME280;16133;49.486;12.176;2023-06-24T06:50:02;98296.38;;;19.76;85.97
29045;BME280;16133;49.486;12.176;2023-06-24T06:52:27;98291.81;;;19.77;86.29
29045;BME280;16133;49.486;12.176;2023-06-24T06:54:53;98293.44;;;19.84;88.04
29045;BME280;16133;49.486;12.176;2023-06-24T06:57:19;98278.13;;;19.78;89.28
29045;BME280;16133;49.486;12.176;2023-06-24T06:59:44;98281.03;;;19.77;88.36
29045;BME280;16133;49.486;12.176;2023-06-24T07:02:10;98282.97;;;19.70;88.87
29045;BME280;16133;49.486;12.176;2023-06-24T07:04:35;98277.91;;;19.80;89.18
29045;BME280;16133;49.486;12.176;2023-06-24T07:07:00;98282.09;;;20.07;88.51
29045;BME280;16133;49.486;12.176;2023-06-24T07:09:26;98283.31;;;20.36;86.72
29045;BME280;16133;49.486;12.176;2023-06-24T07:11:51;98280.13;;;20.45;85.94
29045;BME280;16133;49.486;12.176;2023-06-24T07:14:16;98278.38;;;20.58;86.09
29045;BME280;16133;49.486;12.176;2023-06-24T07:16:42;98275.31;;;20.72;84.34
29045;BME280;16133;49.486;12.176;2023-06-24T07:19:07;98279.91;;;20.90;83.08
29045;BME280;16133;49.486;12.176;2023-06-24T07:21:32;98275.31;;;21.15;82.44
29045;BME280;16133;49.486;12.176;2023-06-24T07:23:58;98272.28;;;21.41;79.79
29045;BME280;16133;49.486;12.176;2023-06-24T07:26:23;98281.72;;;21.62;79.16
29045;BME280;16133;49.486;12.176;2023-06-24T07:28:49;98274.88;;;21.78;76.11
29045;BME280;16133;49.486;12.176;2023-06-24T07:31:14;98270.09;;;21.32;76.99
29045;BME280;16133;49.486;12.176;2023-06-24T07:33:39;98271.09;;;21.19;79.46
29045;BME280;16133;49.486;12.176;2023-06-24T07:36:05;98260.44;;;21.24;78.42
29045;BME280;16133;49.486;12.176;2023-06-24T07:38:30;98268.25;;;21.14;78.87
29045;BME280;16133;49.486;12.176;2023-06-24T07:40:55;98270.75;;;21.09;79.20
29045;BME280;16133;49.486;12.176;2023-06-24T07:43:21;98263.94;;;20.88;78.61
29045;BME280;16133;49.486;12.176;2023-06-24T07:45:46;98267.47;;;21.07;78.41
29045;BME280;16133;49.486;12.176;2023-06-24T07:48:12;98260.78;;;21.10;78.28
29045;BME280;16133;49.486;12.176;2023-06-24T07:50:40;98261.69;;;21.40;77.91
29045;BME280;16133;49.486;12.176;2023-06-24T07:53:06;98256.63;;;21.62;75.64
29045;BME280;16133;49.486;12.176;2023-06-24T07:55:31;98259.22;;;21.68;73.74
29045;BME280;16133;49.486;12.176;2023-06-24T07:57:57;98259.72;;;21.77;74.31
29045;BME280;16133;49.486;12.176;2023-06-24T08:00:23;98268.53;;;22.02;71.67
29045;BME280;16133;49.486;12.176;2023-06-24T08:02:49;98264.53;;;22.05;72.45
29045;BME280;16133;49.486;12.176;2023-06-24T08:05:14;98274.31;;;22.17;72.45
29045;BME280;16133;49.486;12.176;2023-06-24T08:07:39;98273.88;;;22.44;71.03
29045;BME280;16133;49.486;12.176;2023-06-24T08:10:05;98277.56;;;22.72;70.13
29045;BME280;16133;49.486;12.176;2023-06-24T08:12:33;98282.72;;;22.74;68.51
29045;BME280;16133;49.486;12.176;2023-06-24T08:14:58;98275.78;;;22.78;68.44
29045;BME280;16133;49.486;12.176;2023-06-24T08:17:24;98273.19;;;22.83;64.41
29045;BME280;16133;49.486;12.176;2023-06-24T08:19:49;98272.97;;;22.73;63.35
29045;BME280;16133;49.486;12.176;2023-06-24T08:22:14;98274.25;;;22.82;65.30
29045;BME280;16133;49.486;12.176;2023-06-24T08:24:40;98269.06;;;22.92;66.56
29045;BME280;16133;49.486;12.176;2023-06-24T08:27:05;98275.16;;;23.22;62.96
29045;BME280;16133;49.486;12.176;2023-06-24T08:29:31;98273.72;;;23.20;62.07
29045;BME280;16133;49.486;12.176;2023-06-24T08:31:56;98268.72;;;22.77;60.37
29045;BME280;16133;49.486;12.176;2023-06-24T08:34:22;98269.41;;;22.61;61.19
29045;BME280;16133;49.486;12.176;2023-06-24T08:36:47;98266.63;;;22.79;61.75
29045;BME280;16133;49.486;12.176;2023-06-24T08:39:12;98266.59;;;23.02;63.12
29045;BME280;16133;49.486;12.176;2023-06-24T08:41:38;98260.00;;;22.98;61.02
29045;BME280;16133;49.486;12.176;2023-06-24T08:44:03;98263.44;;;22.82;59.07
29045;BME280;16133;49.486;12.176;2023-06-24T08:46:29;98269.28;;;22.67;60.03
29045;BME280;16133;49.486;12.176;2023-06-24T08:49:04;98265.75;;;22.44;61.30
29045;BME280;16133;49.486;12.176;2023-06-24T08:51:35;98266.59;;;22.44;60.92
29045;BME280;16133;49.486;12.176;2023-06-24T08:54:06;98260.34;;;22.67;61.80
29045;BME280;16133;49.486;12.176;2023-06-24T08:56:32;98259.06;;;22.81;59.35
29045;BME280;16133;49.486;12.176;2023-06-24T08:58:58;98264.03;;;22.84;60.34
29045;BME280;16133;49.486;12.176;2023-06-24T09:01:24;98256.13;;;22.82;58.76
29045;BME280;16133;49.486;12.176;2023-06-24T09:03:51;98258.59;;;22.61;58.24
29045;BME280;16133;49.486;12.176;2023-06-24T09:06:16;98261.66;;;22.53;57.48
29045;BME280;16133;49.486;12.176;2023-06-24T09:08:52;98253.19;;;22.61;57.16
29045;BME280;16133;49.486;12.176;2023-06-24T09:11:22;98247.66;;;22.44;57.09
29045;BME280;16133;49.486;12.176;2023-06-24T09:13:54;98245.28;;;22.36;59.31
29045;BME280;16133;49.486;12.176;2023-06-24T09:16:20;98248.94;;;22.30;60.81
29045;BME280;16133;49.486;12.176;2023-06-24T09:18:49;98244.00;;;22.38;60.38
29045;BME280;16133;49.486;12.176;2023-06-24T09:21:23;98252.09;;;22.62;57.31
29045;BME280;16133;49.486;12.176;2023-06-24T09:23:57;98250.72;;;22.71;58.10
29045;BME280;16133;49.486;12.176;2023-06-24T09:26:24;98242.03;;;22.80;55.84
29045;BME280;16133;49.486;12.176;2023-06-24T09:28:50;98239.09;;;22.70;56.26
29045;BME280;16133;49.486;12.176;2023-06-24T09:31:17;98234.47;;;22.59;54.43
29045;BME280;16133;49.486;12.176;2023-06-24T09:33:43;98232.47;;;22.55;55.80
29045;BME280;16133;49.486;12.176;2023-06-24T09:36:15;98235.69;;;22.75;56.82
29045;BME280;16133;49.486;12.176;2023-06-24T09:38:42;98241.03;;;23.10;54.43
29045;BME280;16133;49.486;12.176;2023-06-24T09:41:10;98233.06;;;23.03;54.13
29045;BME280;16133;49.486;12.176;2023-06-24T09:43:38;98235.84;;;23.08;55.20
29045;BME280;16133;49.486;12.176;2023-06-24T09:46:07;98237.38;;;23.04;54.10
29045;BME280;16133;49.486;12.176;2023-06-24T09:48:34;98236.63;;;22.80;55.73
29045;BME280;16133;49.486;12.176;2023-06-24T09:51:01;98237.91;;;22.78;55.63
29045;BME280;16133;49.486;12.176;2023-06-24T09:53:32;98224.66;;;23.05;54.65
29045;BME280;16133;49.486;12.176;2023-06-24T09:56:03;98223.59;;;23.17;54.74
29045;BME280;16133;49.486;12.176;2023-06-24T09:58:31;98228.13;;;23.28;54.35
29045;BME280;16133;49.486;12.176;2023-06-24T10:01:02;98223.50;;;23.41;53.37
29045;BME280;16133;49.486;12.176;2023-06-24T10:03:32;98218.56;;;23.49;53.26
29045;BME280;16133;49.486;12.176;2023-06-24T10:05:59;98226.19;;;23.52;54.20
29045;BME280;16133;49.486;12.176;2023-06-24T10:08:26;98223.66;;;23.46;52.75
29045;BME280;16133;49.486;12.176;2023-06-24T10:10:52;98227.25;;;23.51;52.12
29045;BME280;16133;49.486;12.176;2023-06-24T10:13:20;98219.97;;;23.52;51.07
29045;BME280;16133;49.486;12.176;2023-06-24T10:15:46;98219.16;;;23.40;52.31
29045;BME280;16133;49.486;12.176;2023-06-24T10:20:55;98205.47;;;23.18;53.03
29045;BME280;16133;49.486;12.176;2023-06-24T10:23:21;98202.59;;;23.24;53.55
29045;BME280;16133;49.486;12.176;2023-06-24T10:25:49;98200.88;;;23.18;53.80
29045;BME280;16133;49.486;12.176;2023-06-24T10:28:15;98200.75;;;23.13;52.87
29045;BME280;16133;49.486;12.176;2023-06-24T10:30:54;98196.22;;;23.02;52.67
29045;BME280;16133;49.486;12.176;2023-06-24T10:33:19;98195.72;;;23.05;53.97
29045;BME280;16133;49.486;12.176;2023-06-24T10:35:44;98193.63;;;23.07;51.10
29045;BME280;16133;49.486;12.176;2023-06-24T10:38:10;98199.97;;;23.01;50.95
29045;BME280;16133;49.486;12.176;2023-06-24T10:40:43;98189.53;;;22.81;50.77
29045;BME280;16133;49.486;12.176;2023-06-24T10:45:50;98189.69;;;22.52;51.53
29045;BME280;16133;49.486;12.176;2023-06-24T10:48:17;98185.31;;;22.39;52.84
29045;BME280;16133;49.486;12.176;2023-06-24T10:50:45;98174.41;;;22.46;52.48
29045;BME280;16133;49.486;12.176;2023-06-24T10:53:12;98173.56;;;22.57;52.71
29045;BME280;16133;49.486;12.176;2023-06-24T10:55:37;98170.03;;;22.79;51.85
29045;BME280;16133;49.486;12.176;2023-06-24T10:58:10;98167.06;;;22.81;50.53
29045;BME280;16133;49.486;12.176;2023-06-24T11:00:37;98150.94;;;22.86;47.60
29045;BME280;16133;49.486;12.176;2023-06-24T11:03:13;98154.00;;;22.78;46.47
29045;BME280;16133;49.486;12.176;2023-06-24T11:05:43;98146.38;;;22.75;49.13
29045;BME280;16133;49.486;12.176;2023-06-24T11:08:09;98142.38;;;22.66;50.51
29045;BME280;16133;49.486;12.176;2023-06-24T11:10:47;98147.69;;;22.61;46.38
29045;BME280;16133;49.486;12.176;2023-06-24T11:13:13;98139.66;;;22.66;47.40
29045;BME280;16133;49.486;12.176;2023-06-24T11:15:39;98142.38;;;22.66;47.17
29045;BME280;16133;49.486;12.176;2023-06-24T11:18:08;98132.84;;;22.63;45.38
29045;BME280;16133;49.486;12.176;2023-06-24T11:20:36;98134.84;;;22.79;48.32
29045;BME280;16133;49.486;12.176;2023-06-24T11:23:01;98141.91;;;23.09;47.13
29045;BME280;16133;49.486;12.176;2023-06-24T11:25:27;98138.00;;;22.88;48.82
29045;BME280;16133;49.486;12.176;2023-06-24T11:27:53;98137.59;;;22.96;48.75
29045;BME280;16133;49.486;12.176;2023-06-24T11:30:19;98120.75;;;23.06;49.40
29045;BME280;16133;49.486;12.176;2023-06-24T11:32:44;98120.81;;;23.22;49.87
29045;BME280;16133;49.486;12.176;2023-06-24T11:35:12;98120.38;;;23.59;47.54
29045;BME280;16133;49.486;12.176;2023-06-24T11:37:45;98130.22;;;23.48;45.82
29045;BME280;16133;49.486;12.176;2023-06-24T11:40:13;98117.63;;;23.42;46.93
29045;BME280;16133;49.486;12.176;2023-06-24T11:42:39;98115.06;;;23.35;45.35
29045;BME280;16133;49.486;12.176;2023-06-24T11:45:10;98112.25;;;23.30;45.88
29045;BME280;16133;49.486;12.176;2023-06-24T11:47:37;98110.13;;;23.32;43.51
29045;BME280;16133;49.486;12.176;2023-06-24T11:50:04;98104.63;;;23.27;44.28
29045;BME280;16133;49.486;12.176;2023-06-24T11:52:49;98117.75;;;23.19;45.61
29045;BME280;16133;49.486;12.176;2023-06-24T11:55:18;98106.28;;;23.28;44.60
29045;BME280;16133;49.486;12.176;2023-06-24T11:57:47;98110.44;;;23.19;45.58
29045;BME280;16133;49.486;12.176;2023-06-24T12:00:19;98107.81;;;23.24;46.99
29045;BME280;16133;49.486;12.176;2023-06-24T12:02:44;98105.13;;;23.24;43.83
29045;BME280;16133;49.486;12.176;2023-06-24T12:05:09;98100.47;;;23.37;43.00
29045;BME280;16133;49.486;12.176;2023-06-24T12:07:35;98099.22;;;23.27;43.58
29045;BME280;16133;49.486;12.176;2023-06-24T12:10:00;98103.38;;;23.47;41.43
29045;BME280;16133;49.486;12.176;2023-06-24T12:12:26;98112.59;;;23.46;39.73
29045;BME280;16133;49.486;12.176;2023-06-24T12:14:54;98107.63;;;23.43;41.87
29045;BME280;16133;49.486;12.176;2023-06-24T12:17:20;98102.63;;;23.51;41.69
29045;BME280;16133;49.486;12.176;2023-06-24T12:19:45;98105.28;;;23.34;42.82
29045;BME280;16133;49.486;12.176;2023-06-24T12:22:11;98097.09;;;23.29;40.72
29045;BME280;16133;49.486;12.176;2023-06-24T12:24:37;98097.13;;;23.46;39.55
29045;BME280;16133;49.486;12.176;2023-06-24T12:27:02;98094.19;;;23.48;40.74
29045;BME280;16133;49.486;12.176;2023-06-24T12:29:28;98090.13;;;23.33;41.36
29045;BME280;16133;49.486;12.176;2023-06-24T12:31:53;98092.13;;;23.55;41.81
29045;BME280;16133;49.486;12.176;2023-06-24T12:34:19;98084.50;;;23.52;43.73
29045;BME280;16133;49.486;12.176;2023-06-24T12:36:46;98081.13;;;23.61;43.25
29045;BME280;16133;49.486;12.176;2023-06-24T12:39:11;98078.09;;;23.74;43.61
29045;BME280;16133;49.486;12.176;2023-06-24T12:41:36;98085.16;;;23.59;44.40
29045;BME280;16133;49.486;12.176;2023-06-24T12:44:02;98088.84;;;23.69;43.94
29045;BME280;16133;49.486;12.176;2023-06-24T12:46:27;98076.84;;;23.65;45.74
29045;BME280;16133;49.486;12.176;2023-06-24T12:48:52;98068.72;;;23.82;44.23
29045;BME280;16133;49.486;12.176;2023-06-24T12:51:18;98067.66;;;23.83;44.67
29045;BME280;16133;49.486;12.176;2023-06-24T12:53:43;98068.50;;;23.84;44.96
29045;BME280;16133;49.486;12.176;2023-06-24T12:56:08;98062.69;;;23.97;45.29
29045;BME280;16133;49.486;12.176;2023-06-24T12:58:34;98067.50;;;24.11;45.68
29045;BME280;16133;49.486;12.176;2023-06-24T13:00:59;98070.41;;;24.21;45.56